createdAt,value
2022-11-03T00:02:59.125Z,14.02
2022-11-03T00:08:28.749Z,15.77
2022-11-03T00:13:58.230Z,14.85
2022-11-03T00:19:24.177Z,14.40
2022-11-03T00:24:51.266Z,13.45
2022-11-03T00:30:20.465Z,12.35
2022-11-03T00:35:46.697Z,13.27
2022-11-03T00:41:11.046Z,13.50
2022-11-03T00:46:40.364Z,13.25
2022-11-03T00:52:05.587Z,14.40
2022-11-03T00:57:29.933Z,14.50
2022-11-03T01:02:54.665Z,13.52
2022-11-03T01:08:26.620Z,13.95
2022-11-03T01:13:56.718Z,15.77
2022-11-03T01:19:20.852Z,15.35
2022-11-03T01:24:46.029Z,14.77
2022-11-03T01:30:10.232Z,15.77
2022-11-03T01:35:35.232Z,17.00
2022-11-03T01:41:04.863Z,18.17
2022-11-03T01:46:30.363Z,19.23
2022-11-03T01:51:58.077Z,18.05
2022-11-03T01:57:28.381Z,17.45
2022-11-03T02:02:57.634Z,15.32
2022-11-03T02:08:30.135Z,15.63
2022-11-03T02:14:00.675Z,14.98
2022-11-03T02:19:36.861Z,14.55
2022-11-03T02:25:16.823Z,15.07
2022-11-03T02:30:46.419Z,14.63
2022-11-03T02:36:16.818Z,14.90
2022-11-03T02:41:43.011Z,16.25
2022-11-03T02:47:11.039Z,16.35
2022-11-03T02:52:38.948Z,17.20
2022-11-03T02:58:12.871Z,17.40
2022-11-03T03:03:43.386Z,15.68
2022-11-03T03:09:14.125Z,15.13
2022-11-03T03:14:41.854Z,14.13
2022-11-03T03:20:15.723Z,14.32
2022-11-03T03:25:44.471Z,15.52
2022-11-03T03:31:12.104Z,13.07
2022-11-03T03:36:42.050Z,14.07
2022-11-03T03:42:10.359Z,14.23
2022-11-03T03:47:37.008Z,14.68
2022-11-03T03:53:04.176Z,15.60
2022-11-03T03:58:29.300Z,15.27
2022-11-03T04:03:53.405Z,14.80
2022-11-03T04:09:18.925Z,14.75
2022-11-03T04:15:00.568Z,16.23
2022-11-03T04:20:45.324Z,19.88
2022-11-03T04:26:15.202Z,15.75
2022-11-03T04:37:02.940Z,16.50
2022-11-03T04:42:33.477Z,16.55
2022-11-03T04:48:00.844Z,18.55
2022-11-03T04:53:31.597Z,17.17
2022-11-03T04:58:59.508Z,17.25
2022-11-03T05:04:24.153Z,17.52
2022-11-03T05:09:48.402Z,18.42
2022-11-03T05:15:31.279Z,17.02
2022-11-03T05:21:03.907Z,16.88
2022-11-03T05:26:34.043Z,18.15
2022-11-03T05:32:01.093Z,19.90
2022-11-03T05:37:28.123Z,17.38
2022-11-03T05:42:54.814Z,15.63
2022-11-03T05:48:30.884Z,15.88
2022-11-03T05:53:59.045Z,17.38
2022-11-03T05:59:28.098Z,18.02
2022-11-03T06:04:53.617Z,13.70
2022-11-03T06:10:25.054Z,14.60
2022-11-03T06:15:52.108Z,19.42
2022-11-03T06:21:23.546Z,15.38
2022-11-03T06:26:50.926Z,14.52
2022-11-03T06:32:14.951Z,14.25
2022-11-03T06:37:40.352Z,16.77
2022-11-03T06:43:17.886Z,16.73
2022-11-03T06:48:42.589Z,14.50
2022-11-03T06:54:12.484Z,14.98
2022-11-03T06:59:41.708Z,12.50
2022-11-03T07:05:21.792Z,15.68
2022-11-03T07:10:59.244Z,14.43
2022-11-03T07:16:31.319Z,14.32
2022-11-03T07:22:02.157Z,16.38
2022-11-03T07:27:37.057Z,14.80
2022-11-03T07:33:15.492Z,14.10
2022-11-03T07:38:46.106Z,14.13
2022-11-03T07:44:21.132Z,14.35
2022-11-03T07:49:50.564Z,15.65
2022-11-03T07:55:19.832Z,20.23
2022-11-03T08:00:49.980Z,19.03
2022-11-03T08:06:20.108Z,17.77
2022-11-03T08:11:49.612Z,18.58
2022-11-03T08:17:20.000Z,16.67
2022-11-03T08:23:05.024Z,17.48
2022-11-03T08:28:38.699Z,16.98
2022-11-03T08:34:09.012Z,18.77
2022-11-03T08:39:38.258Z,18.17
2022-11-03T08:45:08.825Z,13.70
2022-11-03T08:50:40.644Z,11.93
2022-11-03T08:56:12.267Z,8.57
2022-11-03T09:01:42.519Z,11.32
2022-11-03T09:07:12.797Z,9.80
2022-11-03T09:12:41.577Z,9.35
2022-11-03T09:18:10.978Z,9.85
2022-11-03T09:23:41.987Z,9.55
2022-11-03T09:29:11.809Z,8.90
2022-11-03T09:34:40.379Z,7.70
2022-11-03T09:40:13.172Z,9.00
2022-11-03T09:45:42.181Z,8.27
2022-11-03T09:51:15.308Z,8.98
2022-11-03T09:56:47.229Z,12.27
2022-11-03T10:02:22.914Z,9.75
2022-11-03T10:13:30.401Z,10.95
2022-11-03T10:19:01.196Z,12.07
2022-11-03T10:24:30.094Z,13.75
2022-11-03T10:30:09.516Z,11.98
2022-11-03T10:35:38.239Z,10.70
2022-11-03T10:41:15.460Z,10.63
2022-11-03T10:46:57.900Z,11.80
2022-11-03T10:52:29.858Z,10.68
2022-11-03T10:57:59.873Z,8.35
2022-11-03T11:03:30.715Z,6.50
2022-11-03T14:40:30.827Z,7.97
2022-11-03T14:45:59.899Z,6.97
2022-11-03T14:51:28.796Z,8.90
2022-11-03T14:56:59.280Z,7.47
2022-11-03T15:02:31.579Z,7.78
2022-11-03T15:08:00.600Z,7.97
2022-11-03T15:13:31.290Z,7.15
2022-11-03T15:19:03.626Z,8.50
2022-11-03T15:30:22.987Z,6.65
2022-11-03T15:35:51.935Z,9.63
2022-11-03T15:41:22.091Z,8.68
2022-11-03T15:52:24.812Z,9.50
2022-11-03T15:57:53.862Z,11.80
2022-11-03T16:03:24.372Z,9.77
2022-11-03T16:08:53.526Z,10.25
2022-11-03T16:14:22.861Z,11.50
2022-11-03T16:19:53.102Z,9.95
2022-11-03T16:25:21.669Z,9.95
2022-11-03T16:30:54.232Z,12.93
2022-11-03T16:36:25.547Z,15.20
2022-11-03T16:41:55.809Z,12.60
2022-11-03T16:52:58.710Z,11.48
2022-11-03T16:58:30.169Z,10.82
2022-11-03T17:03:58.962Z,11.40
2022-11-03T17:09:30.672Z,11.07
2022-11-03T17:15:00.294Z,10.05
2022-11-03T17:20:29.635Z,18.85
2022-11-03T17:26:02.547Z,12.98
2022-11-03T17:31:33.511Z,11.23
2022-11-03T17:37:02.943Z,9.77
2022-11-03T17:42:33.792Z,11.73
2022-11-03T17:48:04.014Z,11.52
2022-11-03T17:53:35.078Z,11.43
2022-11-03T17:59:08.536Z,10.40
2022-11-03T18:04:37.792Z,10.38
2022-11-03T18:10:09.951Z,10.70
2022-11-03T18:15:44.075Z,10.57
2022-11-03T18:21:15.919Z,9.82
2022-11-03T18:26:45.176Z,10.25
2022-11-03T18:37:48.240Z,9.10
2022-11-03T18:43:21.011Z,8.52
2022-11-03T18:48:51.277Z,9.77
2022-11-03T18:54:23.322Z,9.13
2022-11-03T18:59:53.486Z,7.97
2022-11-03T19:05:24.553Z,6.97
2022-11-03T19:10:54.539Z,7.30
2022-11-03T19:16:26.959Z,6.82
2022-11-03T19:21:56.911Z,7.43
2022-11-03T19:27:28.793Z,8.50
2022-11-03T19:32:59.468Z,9.00
2022-11-03T19:38:29.759Z,8.85
2022-11-03T19:43:58.603Z,8.95
2022-11-03T19:49:27.703Z,8.20
2022-11-03T19:54:59.232Z,8.73
2022-11-03T20:00:23.404Z,8.27
2022-11-03T20:05:50.030Z,9.15
2022-11-03T20:11:23.527Z,9.73
2022-11-03T20:16:47.688Z,8.73
2022-11-03T20:22:17.030Z,9.40
2022-11-03T20:33:16.066Z,9.65
2022-11-03T20:38:39.703Z,10.25
2022-11-03T22:41:20.489Z,14.68
2022-11-03T22:46:50.528Z,14.10
2022-11-03T22:57:49.467Z,13.85
2022-11-03T23:03:18.402Z,14.25
2022-11-03T23:08:44.812Z,14.25
2022-11-03T23:14:14.541Z,13.75
2022-11-03T23:20:09.821Z,13.83
2022-11-03T23:25:40.309Z,12.85
2022-11-03T23:31:07.278Z,13.35
2022-11-03T23:36:36.394Z,11.60
2022-11-03T23:42:00.627Z,11.10
2022-11-03T23:47:44.531Z,11.50
2022-11-03T23:53:13.518Z,10.95
2022-11-03T23:58:40.501Z,9.40
